Phoenix, AZ (85022)

12:48 PM MST on May 03, 2015 (GMT -0700)
Lookout Mountain SW | | Change Station
CLOSE
Current Station
Personal Weather Station
Location: Phoenix, AZ
Elevation: 1475 ft
Nearby Weather Stations

Elev 1475 ft 33.62 °N, 112.06 °W | Updated 3 minutes ago

Partly Cloudy
Partly Cloudy
89.0 °F
Feels Like 86 °F
N
2.0
Wind Variable Wind from North
Gusts 6.0 mph

Today
High -- | Low -- °F
--% Chance of Precip.
Yesterday
High -- | Low -- °F
Precip. -- in
5:37 AM 7:12 PM
Full, 100% visible
Pressure 29.79 in
Visibility 10.0 miles
Clouds Scattered Clouds 9500 ft
Heat Index 86 °F
Dew Point 49 °F
Humidity 25%
Rainfall 0.00 in
Snow Depth Not available.
UV 9 out of 12
Pollen 7.40 out of 12
Air Quality Not available.
Flu Activity Local Activity
METAR KDVT 031853Z AUTO 24010G18KT 10SM SCT095 30/04 A2986 RMK AO2 SLP088 T03000044

More Conditions Fewer Conditions

Pressure 29.79 in
Visibility 10.0 miles
Clouds Scattered Clouds 9500 ft
Heat Index 86 °F
Dew Point 49 °F
Humidity 25%
Rainfall 0.00 in
Snow Depth Not available.
UV 9 out of 12
Pollen 7.40 out of 12
Air Quality Not available.
Flu Activity Local Activity
METAR KDVT 031853Z AUTO 24010G18KT 10SM SCT095 30/04 A2986 RMK AO2 SLP088 T03000044

More Conditions Fewer Conditions

Nepal has a long way to go to dig out and rebuild from a devastating earthquake. We have teamed up with several charities and organizations to make contributing to the relief effort as easy as possible.
How you can help: Portlight Strategies | Red Cross

10-Day Weather Forecast

Almanac

Astronomy

May. 03, 2015 Rise Set
Actual Time
Civil Twilight
Nautical Twilight
Astronomical Twilight
Moon
Length of Visible Light
Length of Day
Tomorrow will be .
, % of the Moon is Illuminated

Today's Extremes

State Highs State Lows

Community

WunderPhotos

Upload Photos

1,818,347 photos uploaded!

WunderBlogs® & News

Nearby

Air Quality

  Air Quality AQ Index Pollutant
Not available.

Snow Depth

Station Depth Elevation

Earthquake Activity

City Distance Mag. Time & Date
Minimum magnitude displayed is 2.5.

Coastal Water Temperatures

Place Temperature

Stations

Nearby Weather Stations

Station Location Temp. Windchill Dew Point Humidity Wind Precip. Elev Updated Type